createdAt,value
2018-09-25T00:00:58.824Z,995.34
2018-09-25T00:02:09.006Z,995.35
2018-09-25T00:03:18.857Z,995.38
2018-09-25T00:04:28.434Z,995.35
2018-09-25T00:05:38.285Z,995.38
2018-09-25T00:06:48.419Z,995.33
2018-09-25T00:07:58.594Z,995.29
2018-09-25T00:09:08.743Z,995.32
2018-09-25T00:10:18.666Z,995.29
2018-09-25T00:11:29.451Z,995.23
2018-09-25T00:12:39.581Z,995.27
2018-09-25T00:13:49.487Z,995.2
2018-09-25T00:14:59.633Z,995.23
2018-09-25T00:16:09.213Z,995.25
2018-09-25T00:17:19.069Z,995.28
2018-09-25T00:18:28.647Z,995.32
2018-09-25T00:19:38.501Z,995.28
2018-09-25T00:20:48.357Z,995.3
2018-09-25T00:21:58.205Z,995.29
2018-09-25T00:23:07.791Z,995.29
2018-09-25T00:24:17.093Z,995.26
2018-09-25T00:25:29.277Z,995.31
2018-09-25T00:26:39.129Z,995.34
2018-09-25T00:27:48.983Z,995.31
2018-09-25T00:28:58.834Z,995.35
2018-09-25T00:30:08.683Z,995.28
2018-09-25T00:31:18.314Z,995.29
2018-09-25T00:32:28.444Z,995.27
2018-09-25T00:33:38.292Z,995.25
2018-09-25T00:34:48.426Z,995.28
2018-09-25T00:35:58.551Z,995.24
2018-09-25T00:37:08.687Z,995.29
2018-09-25T00:38:18.261Z,995.26
2018-09-25T00:39:28.115Z,995.29
2018-09-25T00:40:37.973Z,995.3
2018-09-25T00:41:48.105Z,995.26
2018-09-25T00:42:57.952Z,995.24
2018-09-25T00:44:08.086Z,995.28
2018-09-25T00:45:17.949Z,995.24
2018-09-25T00:46:28.091Z,995.27
2018-09-25T00:47:37.949Z,995.25
2018-09-25T00:48:47.859Z,995.28
2018-09-25T00:49:57.171Z,995.28
2018-09-25T00:51:07.034Z,995.27
2018-09-25T00:52:17.165Z,995.38
2018-09-25T00:53:27.016Z,995.3
2018-09-25T00:54:36.623Z,995.24
2018-09-25T00:55:46.748Z,995.26
2018-09-25T00:56:56.107Z,995.22
2018-09-25T00:58:05.972Z,995.23
2018-09-25T00:59:16.101Z,995.23
2018-09-25T01:00:25.950Z,995.28
2018-09-25T01:01:35.526Z,995.24
2018-09-25T01:02:45.660Z,995.2
2018-09-25T01:03:55.787Z,995.17
2018-09-25T01:05:05.641Z,995.18
2018-09-25T01:06:15.500Z,995.19
2018-09-25T01:07:25.626Z,995.18
2018-09-25T01:08:35.492Z,995.22
2018-09-25T01:09:45.345Z,995.22
2018-09-25T01:10:55.198Z,995.17
2018-09-25T01:12:05.062Z,995.14
2018-09-25T01:13:14.911Z,995.11
2018-09-25T01:14:24.767Z,995.13
2018-09-25T01:15:34.347Z,995.2
2018-09-25T01:16:44.488Z,995.19
2018-09-25T01:17:54.338Z,995.22
2018-09-25T01:19:04.524Z,995.21
2018-09-25T01:20:15.010Z,995.24
2018-09-25T01:21:25.150Z,995.21
2018-09-25T01:22:35.278Z,995.27
2018-09-25T01:23:45.137Z,995.25
2018-09-25T01:24:55.268Z,995.24
2018-09-25T01:26:05.138Z,995.25
2018-09-25T01:27:14.989Z,995.28
2018-09-25T01:28:25.118Z,995.26
2018-09-25T01:29:34.972Z,995.21
2018-09-25T01:30:44.821Z,995.24
2018-09-25T01:31:54.670Z,995.28
2018-09-25T01:33:04.521Z,995.21
2018-09-25T01:34:14.663Z,995.25
2018-09-25T01:35:24.793Z,995.24
2018-09-25T01:36:34.647Z,995.22
2018-09-25T01:37:44.769Z,995.27
2018-09-25T01:38:54.628Z,995.26
2018-09-25T01:40:04.484Z,995.22
2018-09-25T01:41:14.611Z,995.19
2018-09-25T01:42:24.740Z,995.18
2018-09-25T01:43:34.866Z,995.14
2018-09-25T01:44:44.721Z,995.14
2018-09-25T01:45:54.861Z,995.17
2018-09-25T01:47:04.712Z,995.16
2018-09-25T01:48:14.839Z,995.15
2018-09-25T01:49:24.695Z,995.16
2018-09-25T01:50:33.721Z,995.14
2018-09-25T01:51:43.842Z,995.13
2018-09-25T01:52:53.741Z,995.13
2018-09-25T01:54:03.870Z,995.15
2018-09-25T01:55:14.013Z,995.19
2018-09-25T01:56:24.145Z,995.17
2018-09-25T01:57:33.996Z,995.15
2018-09-25T01:58:44.126Z,995.16
2018-09-25T01:59:54.251Z,995.16
2018-09-25T02:01:04.099Z,995.13
2018-09-25T02:02:13.955Z,995.14
2018-09-25T02:03:23.812Z,995.15
2018-09-25T02:04:33.663Z,995.11
2018-09-25T02:05:43.811Z,995.14
2018-09-25T02:06:54.265Z,995.13
2018-09-25T02:08:04.396Z,995.09
2018-09-25T02:09:14.259Z,995.09
2018-09-25T02:10:24.388Z,995.09
2018-09-25T02:11:34.518Z,995.13
2018-09-25T02:12:44.653Z,995.14
2018-09-25T02:13:54.503Z,995.15
2018-09-25T02:15:04.655Z,995.14
2018-09-25T02:16:14.840Z,995.13
2018-09-25T02:17:24.421Z,995.09
2018-09-25T02:18:34.552Z,995.06
2018-09-25T02:19:44.412Z,995.04
2018-09-25T02:20:54.541Z,995
2018-09-25T02:22:04.394Z,995.03
2018-09-25T02:23:14.527Z,995
2018-09-25T02:24:24.653Z,995.04
2018-09-25T02:25:34.511Z,995
2018-09-25T02:26:44.641Z,995.05
2018-09-25T02:27:54.220Z,995.05
2018-09-25T02:29:04.083Z,995.11
2018-09-25T02:30:14.211Z,995.02
2018-09-25T02:31:23.797Z,995.08
2018-09-25T02:32:33.934Z,995.06
2018-09-25T02:33:44.131Z,994.96
2018-09-25T02:34:54.267Z,994.97
2018-09-25T02:36:04.416Z,994.9
2018-09-25T02:37:14.272Z,994.91
2018-09-25T02:38:24.410Z,994.89
2018-09-25T02:39:34.537Z,994.88
2018-09-25T02:40:44.666Z,994.88
2018-09-25T02:41:54.546Z,994.89
2018-09-25T02:43:04.129Z,994.9
2018-09-25T02:44:13.984Z,994.96
2018-09-25T02:45:23.845Z,994.93
2018-09-25T02:46:33.697Z,994.93
2018-09-25T02:47:43.556Z,994.93
2018-09-25T02:48:52.861Z,994.95
2018-09-25T02:50:02.451Z,994.9
2018-09-25T02:51:12.313Z,994.89
2018-09-25T02:52:22.168Z,994.89
2018-09-25T02:53:32.304Z,994.88
2018-09-25T02:54:42.433Z,994.81
2018-09-25T02:55:52.563Z,994.81
2018-09-25T02:57:02.740Z,994.82
2018-09-25T02:58:12.872Z,994.83
2018-09-25T02:59:22.448Z,994.83
2018-09-25T03:00:32.322Z,994.82
2018-09-25T03:01:42.179Z,994.82
2018-09-25T03:02:51.773Z,994.83
2018-09-25T03:04:01.911Z,994.76
2018-09-25T03:05:12.045Z,994.75
2018-09-25T03:06:21.909Z,994.75
2018-09-25T03:07:32.039Z,994.72
2018-09-25T03:08:42.161Z,994.73
2018-09-25T03:09:51.747Z,994.72
2018-09-25T03:11:01.597Z,994.71
2018-09-25T03:12:11.449Z,994.71
2018-09-25T03:13:21.028Z,994.71
2018-09-25T03:14:30.655Z,994.73
2018-09-25T03:15:40.783Z,994.75
2018-09-25T03:16:50.913Z,994.77
2018-09-25T03:18:00.765Z,994.84
2018-09-25T03:19:10.675Z,994.9
2018-09-25T03:20:21.184Z,994.95
2018-09-25T03:21:31.467Z,994.91
2018-09-25T03:22:41.040Z,994.89
2018-09-25T03:23:51.246Z,994.85
2018-09-25T03:25:01.458Z,994.81
2018-09-25T03:26:11.614Z,994.86
2018-09-25T03:27:21.477Z,994.85
2018-09-25T03:28:31.601Z,994.86
2018-09-25T03:29:41.451Z,994.84
2018-09-25T03:30:50.754Z,994.82
2018-09-25T03:32:00.947Z,994.81
2018-09-25T03:33:11.091Z,994.88
2018-09-25T03:34:20.939Z,994.91
2018-09-25T03:35:30.788Z,994.92
2018-09-25T03:36:40.914Z,994.94
2018-09-25T03:37:51.102Z,994.96
2018-09-25T03:39:00.951Z,994.93
2018-09-25T03:40:10.541Z,994.95
2018-09-25T03:41:20.395Z,994.89
2018-09-25T03:42:30.245Z,994.87
2018-09-25T03:43:40.102Z,994.89
2018-09-25T03:44:50.234Z,994.83
2018-09-25T03:46:00.363Z,994.84
2018-09-25T03:47:10.500Z,994.92
2018-09-25T03:48:20.630Z,994.88
2018-09-25T03:49:30.860Z,994.88
2018-09-25T03:50:40.446Z,994.9
2018-09-25T03:51:50.037Z,994.86
2018-09-25T03:52:59.900Z,994.96
2018-09-25T03:54:10.035Z,994.91
2018-09-25T03:55:19.993Z,994.9
2018-09-25T03:56:29.843Z,994.95
2018-09-25T03:57:39.981Z,994.88
2018-09-25T03:58:50.109Z,994.83
2018-09-25T03:59:59.970Z,994.81
2018-09-25T04:01:09.654Z,994.82
2018-09-25T04:02:19.509Z,994.81
2018-09-25T04:03:29.401Z,994.84
2018-09-25T04:04:39.534Z,994.73
2018-09-25T04:05:49.401Z,994.75
2018-09-25T04:06:58.815Z,994.71
2018-09-25T04:08:08.396Z,994.7
2018-09-25T04:09:18.248Z,994.64
2018-09-25T04:10:28.383Z,994.64
2018-09-25T04:11:37.960Z,994.63
2018-09-25T04:12:47.810Z,994.57
2018-09-25T04:13:57.942Z,994.56
2018-09-25T04:15:07.808Z,994.57
2018-09-25T04:16:17.384Z,994.61
2018-09-25T04:17:27.234Z,994.62
2018-09-25T04:18:37.425Z,994.68
2018-09-25T04:19:47.555Z,994.6
2018-09-25T04:20:57.137Z,994.6
2018-09-25T04:22:06.988Z,994.63
2018-09-25T04:23:16.844Z,994.64
2018-09-25T04:24:26.474Z,994.67
2018-09-25T04:25:36.328Z,994.63
2018-09-25T04:26:46.465Z,994.63
2018-09-25T04:27:56.332Z,994.6
2018-09-25T04:29:06.199Z,994.59
2018-09-25T04:30:16.331Z,994.53
2018-09-25T04:31:26.475Z,994.55
2018-09-25T04:32:36.611Z,994.55
2018-09-25T04:33:46.746Z,994.5
2018-09-25T04:34:56.908Z,994.5
2018-09-25T04:36:06.820Z,994.44
2018-09-25T04:37:17.059Z,994.45
2018-09-25T04:38:27.068Z,994.43
2018-09-25T04:39:37.204Z,994.42
2018-09-25T04:40:46.516Z,994.39
2018-09-25T04:41:56.703Z,994.36
2018-09-25T04:43:06.841Z,994.35
2018-09-25T04:44:17.006Z,994.32
2018-09-25T04:45:26.868Z,994.35
2018-09-25T04:46:37.011Z,994.37
2018-09-25T04:47:47.220Z,994.4
2018-09-25T04:48:57.382Z,994.38
2018-09-25T04:50:06.968Z,994.41
2018-09-25T04:51:16.276Z,994.4
2018-09-25T04:52:26.408Z,994.41
2018-09-25T04:53:36.312Z,994.44
2018-09-25T04:54:46.433Z,994.43
2018-09-25T04:55:56.573Z,994.44
2018-09-25T04:57:06.785Z,994.41
2018-09-25T04:58:16.948Z,994.38
2018-09-25T04:59:27.131Z,994.33
2018-09-25T05:00:36.997Z,994.33
2018-09-25T05:01:46.581Z,994.32
2018-09-25T05:02:56.429Z,994.35
2018-09-25T05:04:06.561Z,994.32
2018-09-25T05:05:16.463Z,994.37
2018-09-25T05:06:26.366Z,994.34
2018-09-25T05:07:36.347Z,994.37
2018-09-25T05:08:46.472Z,994.36
2018-09-25T05:09:56.051Z,994.38
2018-09-25T05:11:06.190Z,994.38
2018-09-25T05:12:16.178Z,994.37
2018-09-25T05:13:26.382Z,994.38
2018-09-25T05:14:36.525Z,994.48
2018-09-25T05:15:47.103Z,994.45
2018-09-25T05:16:57.003Z,994.46
2018-09-25T05:18:06.912Z,994.44
2018-09-25T05:19:17.823Z,994.43
2018-09-25T05:20:27.960Z,994.44
2018-09-25T05:21:37.826Z,994.46
2018-09-25T05:22:47.734Z,994.46
2018-09-25T05:23:57.588Z,994.52
2018-09-25T05:25:06.895Z,994.42
2018-09-25T05:26:16.750Z,994.52
2018-09-25T05:27:26.883Z,994.49
2018-09-25T05:28:37.364Z,994.53
2018-09-25T05:29:47.495Z,994.5
2018-09-25T05:30:57.633Z,994.47
2018-09-25T05:32:07.211Z,994.46
2018-09-25T05:33:17.344Z,994.48
2018-09-25T05:34:27.528Z,994.4
2018-09-25T05:35:37.656Z,994.42
2018-09-25T05:36:47.233Z,994.45
2018-09-25T05:37:57.085Z,994.45
2018-09-25T05:39:07.221Z,994.42
2018-09-25T05:40:17.401Z,994.38
2018-09-25T05:41:27.523Z,994.42
2018-09-25T05:42:37.387Z,994.47
2018-09-25T05:43:47.521Z,994.46
2018-09-25T05:44:57.643Z,994.45
2018-09-25T05:46:07.820Z,994.45
2018-09-25T05:47:17.126Z,994.5
2018-09-25T05:48:26.811Z,994.49
2018-09-25T05:49:36.789Z,994.51
2018-09-25T05:50:46.920Z,994.54
2018-09-25T05:51:56.553Z,994.57
2018-09-25T05:53:06.714Z,994.59
2018-09-25T05:54:16.568Z,994.57
2018-09-25T05:55:26.718Z,994.61
2018-09-25T05:56:37.144Z,994.54
2018-09-25T05:57:46.995Z,994.56
2018-09-25T05:58:57.124Z,994.59
2018-09-25T06:00:06.702Z,994.57
2018-09-25T06:01:16.836Z,994.54
2018-09-25T06:02:26.694Z,994.58
2018-09-25T06:03:36.873Z,994.59
2018-09-25T06:04:46.729Z,994.54
2018-09-25T06:05:56.584Z,994.54
2018-09-25T06:07:06.714Z,994.51
2018-09-25T06:08:16.295Z,994.51
2018-09-25T06:09:26.233Z,994.52
2018-09-25T06:10:36.630Z,994.42
2018-09-25T06:11:46.767Z,994.39
2018-09-25T06:12:56.617Z,994.41
2018-09-25T06:14:06.469Z,994.37
2018-09-25T06:15:16.420Z,994.42
2018-09-25T06:16:26.274Z,994.37
2018-09-25T06:17:36.132Z,994.41
2018-09-25T06:18:46.079Z,994.36
2018-09-25T06:19:55.828Z,994.35
2018-09-25T06:21:05.737Z,994.32
2018-09-25T06:22:15.327Z,994.29
2018-09-25T06:23:25.186Z,994.32
2018-09-25T06:24:35.053Z,994.37
2018-09-25T06:25:44.910Z,994.35
2018-09-25T06:26:55.043Z,994.38
2018-09-25T06:28:04.893Z,994.35
2018-09-25T06:29:14.746Z,994.41
2018-09-25T06:30:24.887Z,994.39
2018-09-25T06:31:34.738Z,994.44
2018-09-25T06:32:44.921Z,994.46
2018-09-25T06:33:54.774Z,994.46
2018-09-25T06:35:04.629Z,994.43
2018-09-25T06:36:14.484Z,994.4
2018-09-25T06:37:24.200Z,994.4
2018-09-25T06:38:34.380Z,994.41
2018-09-25T06:39:54.610Z,994.4
2018-09-25T06:41:04.485Z,994.41
2018-09-25T06:42:14.303Z,994.39
2018-09-25T06:43:24.401Z,994.37
2018-09-25T06:44:34.305Z,994.29
2018-09-25T06:45:44.458Z,994.31
2018-09-25T06:46:54.325Z,994.26
2018-09-25T06:48:04.560Z,994.29
2018-09-25T06:49:14.411Z,994.21
2018-09-25T06:50:24.588Z,994.2
2018-09-25T06:51:34.446Z,994.2
2018-09-25T06:52:44.576Z,994.15
2018-09-25T06:53:54.791Z,994.15
2018-09-25T06:55:04.394Z,994.16
2018-09-25T06:56:14.073Z,994.19
2018-09-25T06:57:24.206Z,994.15
2018-09-25T06:58:34.065Z,994.03
2018-09-25T06:59:43.926Z,994.03
2018-09-25T07:00:53.842Z,994.04
2018-09-25T07:02:04.685Z,994.04
2018-09-25T07:03:14.540Z,994.06
2018-09-25T07:04:24.391Z,994.05
2018-09-25T07:05:34.249Z,994.05
2018-09-25T07:06:44.377Z,994.02
2018-09-25T07:07:54.315Z,994.07
2018-09-25T07:09:04.454Z,994.04
2018-09-25T07:10:14.224Z,994.1
2018-09-25T07:11:24.712Z,994.15
2018-09-25T07:12:34.842Z,994.18
2018-09-25T07:13:44.745Z,994.18
2018-09-25T07:14:54.880Z,994.17
2018-09-25T07:16:04.734Z,994.14
2018-09-25T07:17:14.872Z,994.2
2018-09-25T07:18:25.008Z,994.13
2018-09-25T07:19:34.865Z,994.1
2018-09-25T07:20:45.000Z,994.11
2018-09-25T07:21:54.855Z,994.1
2018-09-25T07:23:04.709Z,994.11
2018-09-25T07:24:14.574Z,994.16
2018-09-25T07:25:24.767Z,994.08
2018-09-25T07:26:34.903Z,994.17
2018-09-25T07:27:44.760Z,994.16
2018-09-25T07:28:54.887Z,994.16
2018-09-25T07:30:05.024Z,994.12
2018-09-25T07:31:15.168Z,994.1
2018-09-25T07:32:25.026Z,994.08
2018-09-25T07:33:34.881Z,994.07
2018-09-25T07:34:45.014Z,994.06
2018-09-25T07:35:55.141Z,994.09
2018-09-25T07:37:05.326Z,994.05
2018-09-25T07:38:15.461Z,994.03
2018-09-25T07:39:25.369Z,994.07
2018-09-25T07:40:35.127Z,994.06
2018-09-25T07:41:45.257Z,994.07
2018-09-25T07:42:54.893Z,994.06
2018-09-25T07:44:05.037Z,994.04
2018-09-25T07:45:15.166Z,994.02
2018-09-25T07:46:25.031Z,994.01
2018-09-25T07:47:35.167Z,994.05
2018-09-25T07:48:45.072Z,994.11
2018-09-25T07:49:54.926Z,994.16
2018-09-25T07:51:04.781Z,994.16
2018-09-25T07:52:14.091Z,994.13
2018-09-25T07:53:23.946Z,994.11
2018-09-25T07:54:33.627Z,994.13
2018-09-25T07:55:43.552Z,994.07
2018-09-25T07:56:53.591Z,994.09
2018-09-25T07:58:03.458Z,994.04
2018-09-25T07:59:13.316Z,994.05
2018-09-25T08:00:23.458Z,994.04
2018-09-25T08:01:33.329Z,994.07
2018-09-25T08:02:43.192Z,994.1
2018-09-25T08:03:53.048Z,994.1
2018-09-25T08:05:02.354Z,994.11
2018-09-25T08:06:12.268Z,994.14
2018-09-25T08:07:22.398Z,994.11
2018-09-25T08:08:32.260Z,994.06
2018-09-25T08:09:42.119Z,994.1
2018-09-25T08:10:52.248Z,994.11
2018-09-25T08:12:02.118Z,994.15
2018-09-25T08:13:11.982Z,994.15
2018-09-25T08:14:22.112Z,994.19
2018-09-25T08:15:32.309Z,994.21
2018-09-25T08:16:41.905Z,994.12
2018-09-25T08:17:51.823Z,994.12
2018-09-25T08:19:01.686Z,994.14
2018-09-25T08:20:11.548Z,994.15
2018-09-25T08:21:21.689Z,994.12
2018-09-25T08:22:31.273Z,994.17
2018-09-25T08:23:41.196Z,994.13
2018-09-25T08:24:51.057Z,994.16
2018-09-25T08:26:00.913Z,994.15
2018-09-25T08:27:10.765Z,994.2
2018-09-25T08:28:20.902Z,994.18
2018-09-25T08:29:30.552Z,994.15
2018-09-25T08:30:40.316Z,994.15
2018-09-25T08:31:50.173Z,994.21
2018-09-25T08:33:00.312Z,994.26
2018-09-25T08:34:09.917Z,994.27
2018-09-25T08:35:20.106Z,994.37
2018-09-25T08:36:29.966Z,994.28
2018-09-25T08:37:39.553Z,994.28
2018-09-25T08:38:49.870Z,994.31
2018-09-25T08:39:59.755Z,994.43
2018-09-25T08:41:09.891Z,994.45
2018-09-25T08:42:19.751Z,994.4
2018-09-25T08:43:29.613Z,994.43
2018-09-25T08:44:39.195Z,994.41
2018-09-25T08:45:49.102Z,994.43
2018-09-25T08:46:59.702Z,994.44
2018-09-25T08:48:09.292Z,994.46
2018-09-25T08:49:19.456Z,994.45
2018-09-25T08:50:29.314Z,994.4
2018-09-25T08:51:39.449Z,994.41
2018-09-25T08:52:49.354Z,994.43
2018-09-25T08:53:59.209Z,994.44
2018-09-25T08:55:09.346Z,994.35
2018-09-25T08:56:19.477Z,994.42
2018-09-25T08:57:29.618Z,994.4
2018-09-25T08:58:39.766Z,994.35
2018-09-25T08:59:49.625Z,994.29
2018-09-25T09:00:59.855Z,994.33
2018-09-25T09:02:10.046Z,994.25
2018-09-25T09:03:19.901Z,994.19
2018-09-25T09:04:30.036Z,994.19
2018-09-25T09:05:39.618Z,994.19
2018-09-25T09:06:49.757Z,994.19
2018-09-25T09:07:59.897Z,994.2
2018-09-25T09:09:09.817Z,994.18
2018-09-25T09:10:19.688Z,994.2
2018-09-25T09:11:29.544Z,994.18
2018-09-25T09:12:39.132Z,994.18
2018-09-25T09:13:48.989Z,994.17
2018-09-25T09:14:58.850Z,994.17
2018-09-25T09:16:08.981Z,994.09
2018-09-25T09:17:19.116Z,994.08
2018-09-25T09:18:28.434Z,994.07
2018-09-25T09:19:38.621Z,994.06
2018-09-25T09:20:49.399Z,994.08
2018-09-25T09:21:59.255Z,994.12
2018-09-25T09:23:09.123Z,994.09
2018-09-25T09:24:18.717Z,994.04
2018-09-25T09:25:28.580Z,994.02
2018-09-25T09:26:38.444Z,994.05
2018-09-25T09:27:49.378Z,994.05
2018-09-25T09:28:58.961Z,994.03
2018-09-25T09:30:09.104Z,994.02
2018-09-25T09:31:18.962Z,994.06
2018-09-25T09:32:29.104Z,993.96
2018-09-25T09:33:39.921Z,994.01
2018-09-25T09:34:49.512Z,993.92
2018-09-25T09:35:59.100Z,994.03
2018-09-25T09:37:08.683Z,993.98
2018-09-25T09:38:18.814Z,993.99
2018-09-25T09:39:28.675Z,994.01
2018-09-25T09:40:38.531Z,993.98
2018-09-25T09:41:48.749Z,993.99
2018-09-25T09:42:59.444Z,993.99
2018-09-25T09:44:09.302Z,993.96
2018-09-25T09:45:18.987Z,993.97
2018-09-25T09:46:28.843Z,993.96
2018-09-25T09:47:38.430Z,993.96
2018-09-25T09:48:47.466Z,993.99
2018-09-25T09:49:57.054Z,993.94
2018-09-25T09:51:06.939Z,993.94
2018-09-25T09:52:17.087Z,993.95
2018-09-25T09:53:27.220Z,993.86
2018-09-25T09:54:37.087Z,993.91
2018-09-25T09:55:46.397Z,993.93
2018-09-25T09:56:56.255Z,993.95
2018-09-25T09:58:06.117Z,993.95
2018-09-25T09:59:16.248Z,993.99
2018-09-25T10:00:25.835Z,993.97
2018-09-25T10:01:35.976Z,993.99
2018-09-25T10:02:46.116Z,993.97
2018-09-25T10:03:56.254Z,993.94
2018-09-25T10:05:06.123Z,993.95
2018-09-25T10:06:16.261Z,993.98
2018-09-25T10:07:26.123Z,993.98
2018-09-25T10:08:36.002Z,993.96
2018-09-25T10:09:46.145Z,993.89
2018-09-25T10:10:56.286Z,993.88
2018-09-25T10:12:06.140Z,993.8
2018-09-25T10:13:16.059Z,993.82
2018-09-25T10:14:25.916Z,993.8
2018-09-25T10:15:35.782Z,993.84
2018-09-25T10:16:45.392Z,993.72
2018-09-25T10:17:55.247Z,993.7
2018-09-25T10:19:04.554Z,993.64
2018-09-25T10:20:14.465Z,993.69
2018-09-25T10:21:24.879Z,993.7
2018-09-25T10:22:34.854Z,993.66
2018-09-25T10:23:44.438Z,993.7
2018-09-25T10:24:54.615Z,993.7
2018-09-25T10:26:04.215Z,993.64
2018-09-25T10:27:14.393Z,993.64
2018-09-25T10:28:25.067Z,993.63
2018-09-25T10:29:35.204Z,993.61
2018-09-25T10:30:44.786Z,993.59
2018-09-25T10:31:54.922Z,993.62
2018-09-25T10:33:04.535Z,993.59
2018-09-25T10:34:14.769Z,993.57
2018-09-25T10:35:25.222Z,993.58
2018-09-25T10:36:35.080Z,993.56
2018-09-25T10:37:44.663Z,993.52
2018-09-25T10:38:54.806Z,993.55
2018-09-25T10:40:04.668Z,993.54
2018-09-25T10:41:14.264Z,993.56
2018-09-25T10:42:24.396Z,993.54
2018-09-25T10:43:33.707Z,993.52
2018-09-25T10:44:43.848Z,993.49
2018-09-25T10:45:53.162Z,993.51
2018-09-25T10:47:02.750Z,993.46
2018-09-25T10:48:12.618Z,993.51
2018-09-25T10:49:22.583Z,993.41
2018-09-25T10:50:32.168Z,993.44
2018-09-25T10:51:42.304Z,993.37
2018-09-25T10:52:52.165Z,993.37
2018-09-25T10:54:02.026Z,993.38
2018-09-25T10:55:11.337Z,993.42
2018-09-25T10:56:21.374Z,993.4
2018-09-25T10:57:31.266Z,993.29
2018-09-25T10:58:41.133Z,993.31
2018-09-25T10:59:51.001Z,993.27
2018-09-25T11:01:00.867Z,993.22
2018-09-25T11:02:11.005Z,993.15
2018-09-25T11:03:20.949Z,993.1
2018-09-25T11:05:47.303Z,993.13
2018-09-25T11:08:13.610Z,993.13
2018-09-25T11:09:23.472Z,993.12
2018-09-25T11:10:33.611Z,993.17
2018-09-25T11:11:44.952Z,993.1
2018-09-25T11:12:54.810Z,993.19
2018-09-25T11:14:04.674Z,993.08
2018-09-25T11:15:14.544Z,993.14
2018-09-25T11:16:24.685Z,993.15
2018-09-25T11:17:34.553Z,993.13
2018-09-25T11:18:44.365Z,993.06
2018-09-25T11:19:54.501Z,993.08
2018-09-25T11:21:04.370Z,993.05
2018-09-25T11:22:14.516Z,993
2018-09-25T11:23:24.652Z,993.04
2018-09-25T11:24:34.516Z,993.02
2018-09-25T11:25:44.122Z,992.98
2018-09-25T11:26:54.262Z,992.97
2018-09-25T11:28:04.121Z,992.99
2018-09-25T11:29:14.259Z,992.97
2018-09-25T11:30:24.393Z,993
2018-09-25T11:31:34.253Z,993.05
2018-09-25T11:32:43.840Z,993.03
2018-09-25T11:33:53.984Z,992.99
2018-09-25T11:35:04.139Z,993.04
2018-09-25T11:36:14.551Z,992.96
2018-09-25T11:37:24.412Z,993.02
2018-09-25T11:38:34.549Z,993.05
2018-09-25T11:39:44.140Z,993.09
2018-09-25T11:40:54.329Z,993.13
2018-09-25T11:42:04.560Z,993.23
2018-09-25T11:43:14.152Z,993.17
2018-09-25T11:44:24.291Z,993.21
2018-09-25T11:45:34.441Z,993.31
2018-09-25T11:46:44.600Z,993.26
2018-09-25T11:47:55.181Z,993.22
2018-09-25T11:49:05.322Z,993.25
2018-09-25T11:50:15.466Z,993.25
2018-09-25T11:51:25.600Z,993.24
2018-09-25T11:52:35.460Z,993.21
2018-09-25T11:53:45.712Z,993.27
2018-09-25T11:54:55.581Z,993.32
2018-09-25T11:56:05.737Z,993.35
2018-09-25T11:57:15.959Z,993.24
2018-09-25T11:58:26.107Z,993.33
2018-09-25T11:59:36.744Z,993.3
2018-09-25T12:00:46.884Z,993.39
2018-09-25T12:01:57.015Z,993.51
2018-09-25T12:03:06.963Z,993.31
2018-09-25T12:04:16.822Z,993.3
2018-09-25T12:05:26.807Z,993.27
2018-09-25T12:06:36.117Z,993.2
2018-09-25T12:07:45.707Z,993.21
2018-09-25T12:08:55.568Z,993.24
2018-09-25T12:10:04.880Z,993.23
2018-09-25T12:11:14.941Z,993.27
2018-09-25T12:12:24.527Z,993.37
2018-09-25T12:13:34.718Z,993.32
2018-09-25T12:14:45.160Z,993.36
2018-09-25T12:15:54.757Z,993.29
2018-09-25T12:17:05.000Z,993.32
2018-09-25T12:18:14.870Z,993.3
2018-09-25T12:19:25.006Z,993.25
2018-09-25T12:20:34.861Z,993.27
2018-09-25T12:21:45.020Z,993.32
2018-09-25T12:22:54.986Z,993.29
2018-09-25T12:24:04.845Z,993.29
2018-09-25T12:25:14.711Z,993.23
2018-09-25T12:26:24.582Z,993.28
2018-09-25T12:27:34.168Z,993.25
2018-09-25T12:28:44.404Z,993.28
2018-09-25T12:29:53.996Z,993.26
2018-09-25T12:31:03.584Z,993.21
2018-09-25T12:32:13.451Z,993.18
2018-09-25T12:33:23.310Z,993.19
2018-09-25T12:34:33.215Z,993.09
2018-09-25T12:35:43.073Z,993.13
2018-09-25T12:36:52.933Z,993.09
2018-09-25T12:38:02.789Z,993.1
2018-09-25T12:39:12.655Z,993.06
2018-09-25T12:40:22.622Z,993.03
2018-09-25T12:41:32.207Z,993.04
2018-09-25T12:42:42.352Z,993.07
2018-09-25T12:43:52.207Z,993.03
2018-09-25T12:45:01.524Z,993.03
2018-09-25T12:46:11.171Z,993.04
2018-09-25T12:47:21.037Z,993.03
2018-09-25T12:48:30.899Z,992.96
2018-09-25T12:49:41.036Z,993.01
2018-09-25T12:50:51.165Z,993.02
2018-09-25T12:52:01.351Z,992.98
2018-09-25T12:53:11.207Z,992.98
2018-09-25T12:54:21.067Z,992.96
2018-09-25T12:55:31.215Z,992.95
2018-09-25T12:56:41.349Z,992.95
2018-09-25T12:57:50.711Z,992.94
2018-09-25T12:59:00.843Z,992.99
2018-09-25T13:00:10.978Z,992.92
2018-09-25T13:01:21.112Z,992.86
2018-09-25T13:02:30.713Z,992.82
2018-09-25T13:03:40.619Z,992.77
2018-09-25T13:04:50.273Z,992.8
2018-09-25T13:06:00.412Z,992.74
2018-09-25T13:07:10.000Z,992.66
2018-09-25T13:08:20.139Z,992.64
2018-09-25T13:09:30.432Z,992.64
2018-09-25T13:10:40.139Z,992.58
2018-09-25T13:11:50.000Z,992.61
2018-09-25T13:13:00.135Z,992.52
2018-09-25T13:14:09.444Z,992.49
2018-09-25T13:15:19.641Z,992.53
2018-09-25T13:16:29.773Z,992.42
2018-09-25T13:17:39.652Z,992.47
2018-09-25T13:18:49.512Z,992.47
2018-09-25T13:19:59.102Z,992.46
2018-09-25T13:21:08.841Z,992.41
2018-09-25T13:22:18.978Z,992.46
2018-09-25T13:23:29.115Z,992.43
2018-09-25T13:24:39.288Z,992.48
2018-09-25T13:25:49.425Z,992.47
2018-09-25T13:26:59.381Z,992.48
2018-09-25T13:28:08.966Z,992.48
2018-09-25T13:29:18.553Z,992.48
2018-09-25T13:30:28.688Z,992.48
2018-09-25T13:31:38.549Z,992.5
2018-09-25T13:32:48.410Z,992.49
2018-09-25T13:33:58.548Z,992.51
2018-09-25T13:35:08.694Z,992.54
2018-09-25T13:36:18.826Z,992.55
2018-09-25T13:37:28.699Z,992.52
2018-09-25T13:38:38.584Z,992.49
2018-09-25T13:39:48.211Z,992.49
2018-09-25T13:40:57.795Z,992.49
2018-09-25T13:42:07.379Z,992.48
2018-09-25T13:43:17.246Z,992.46
2018-09-25T13:44:27.152Z,992.46
2018-09-25T13:45:37.075Z,992.44
2018-09-25T13:46:47.228Z,992.42
2018-09-25T13:47:57.091Z,992.4
2018-09-25T13:49:06.950Z,992.37
2018-09-25T13:50:16.810Z,992.36
2018-09-25T13:51:26.941Z,992.38
2018-09-25T13:52:36.528Z,992.38
2018-09-25T13:53:45.833Z,992.4
2018-09-25T13:54:55.414Z,992.39
2018-09-25T13:56:05.678Z,992.4
2018-09-25T13:57:16.165Z,992.39
2018-09-25T13:58:26.308Z,992.42
2018-09-25T13:59:36.446Z,992.41
2018-09-25T14:00:46.589Z,992.35
2018-09-25T14:01:56.725Z,992.31
2018-09-25T14:03:06.860Z,992.3
2018-09-25T14:04:16.455Z,992.33
2018-09-25T14:05:26.049Z,992.26
2018-09-25T14:06:36.191Z,992.25
2018-09-25T14:07:46.319Z,992.18
2018-09-25T14:08:55.902Z,992.2
2018-09-25T14:10:05.758Z,992.15
2018-09-25T14:11:15.622Z,992.17
2018-09-25T14:12:25.204Z,992.14
2018-09-25T14:13:35.065Z,992.13
2018-09-25T14:14:45.198Z,992.09
2018-09-25T14:15:55.338Z,992.08
2018-09-25T14:17:05.476Z,992.01
2018-09-25T14:18:15.624Z,991.97
2018-09-25T14:19:25.823Z,991.93
2018-09-25T14:20:35.960Z,991.93
2018-09-25T14:21:46.094Z,991.88
2018-09-25T14:22:56.351Z,991.85
2018-09-25T14:24:06.488Z,991.85
2018-09-25T14:25:16.667Z,991.83
2018-09-25T14:26:26.252Z,991.79
2018-09-25T14:27:36.401Z,991.81
2018-09-25T14:28:46.186Z,991.8
2018-09-25T14:29:56.328Z,991.76
2018-09-25T14:31:05.962Z,991.8
2018-09-25T14:32:16.100Z,991.75
2018-09-25T14:33:26.247Z,991.8
2018-09-25T14:34:36.166Z,991.75
2018-09-25T14:35:46.535Z,991.76
2018-09-25T14:36:56.226Z,991.75
2018-09-25T14:38:06.360Z,991.74
2018-09-25T14:39:16.510Z,991.71